sensor_id;sensor_type;location;lat;lon;timestamp;pressure;altitude;pressure_sealevel;temperature;humidity
55914;BME280;58179;48.776;9.124;2023-05-11T04:21:23;97077.63;;;11.22;100.00
55914;BME280;58179;48.776;9.124;2023-05-11T04:23:50;97082.13;;;11.21;100.00
55914;BME280;58179;48.776;9.124;2023-05-11T04:26:16;97086.94;;;11.19;100.00
55914;BME280;58179;48.776;9.124;2023-05-11T04:28:46;97082.94;;;11.12;100.00
55914;BME280;58179;48.776;9.124;2023-05-11T04:31:12;97086.09;;;11.14;100.00
55914;BME280;58179;48.776;9.124;2023-05-11T04:33:38;97078.94;;;11.09;100.00
55914;BME280;58179;48.776;9.124;2023-05-11T04:36:05;97092.72;;;11.11;100.00
55914;BME280;58179;48.776;9.124;2023-05-11T04:38:35;97086.91;;;11.09;100.00
55914;BME280;58179;48.776;9.124;2023-05-11T04:41:03;97098.03;;;11.11;100.00
55914;BME280;58179;48.776;9.124;2023-05-11T04:43:29;97094.84;;;11.09;100.00
55914;BME280;58179;48.776;9.124;2023-05-11T04:45:56;97092.19;;;11.09;100.00
55914;BME280;58179;48.776;9.124;2023-05-11T04:48:23;97089.78;;;11.08;100.00
55914;BME280;58179;48.776;9.124;2023-05-11T04:50:51;97094.59;;;11.11;100.00
55914;BME280;58179;48.776;9.124;2023-05-11T04:53:18;97094.03;;;11.09;100.00
55914;BME280;58179;48.776;9.124;2023-05-11T04:55:47;97099.34;;;11.09;100.00
55914;BME280;58179;48.776;9.124;2023-05-11T04:58:15;97094.03;;;11.09;100.00
55914;BME280;58179;48.776;9.124;2023-05-11T05:00:41;97095.63;;;11.10;100.00
55914;BME280;58179;48.776;9.124;2023-05-11T05:03:07;97099.34;;;11.09;100.00
55914;BME280;58179;48.776;9.124;2023-05-11T05:05:33;97097.22;;;11.11;100.00
55914;BME280;58179;48.776;9.124;2023-05-11T05:08:00;97100.69;;;11.11;100.00
55914;BME280;58179;48.776;9.124;2023-05-11T05:10:26;97098.28;;;11.15;100.00
55914;BME280;58179;48.776;9.124;2023-05-11T05:12:54;97099.09;;;11.15;100.00
55914;BME280;58179;48.776;9.124;2023-05-11T05:15:20;97093.78;;;11.20;100.00
55914;BME280;58179;48.776;9.124;2023-05-11T05:17:47;97100.19;;;11.24;100.00
55914;BME280;58179;48.776;9.124;2023-05-11T05:20:19;97099.66;;;11.28;100.00
55914;BME280;58179;48.776;9.124;2023-05-11T05:22:45;97095.69;;;11.25;100.00
55914;BME280;58179;48.776;9.124;2023-05-11T05:25:11;97099.13;;;11.25;100.00
55914;BME280;58179;48.776;9.124;2023-05-11T05:27:37;97096.22;;;11.27;100.00
55914;BME280;58179;48.776;9.124;2023-05-11T05:30:11;97104.41;;;11.31;100.00
55914;BME280;58179;48.776;9.124;2023-05-11T05:32:37;97105.22;;;11.31;100.00
55914;BME280;58179;48.776;9.124;2023-05-11T05:35:04;97106.81;;;11.32;100.00
55914;BME280;58179;48.776;9.124;2023-05-11T05:37:33;97102.56;;;11.36;100.00
55914;BME280;58179;48.776;9.124;2023-05-11T05:39:59;97100.72;;;11.37;100.00
55914;BME280;58179;48.776;9.124;2023-05-11T05:42:25;97105.75;;;11.38;100.00
55914;BME280;58179;48.776;9.124;2023-05-11T05:44:52;97101.50;;;11.37;100.00
55914;BME280;58179;48.776;9.124;2023-05-11T05:47:20;97104.97;;;11.38;100.00
55914;BME280;58179;48.776;9.124;2023-05-11T05:49:47;97112.91;;;11.43;100.00
55914;BME280;58179;48.776;9.124;2023-05-11T05:52:13;97107.34;;;11.44;100.00
55914;BME280;58179;48.776;9.124;2023-05-11T05:54:39;97106.28;;;11.50;100.00
55914;BME280;58179;48.776;9.124;2023-05-11T05:57:06;97111.88;;;11.54;100.00
55914;BME280;58179;48.776;9.124;2023-05-11T05:59:34;97112.69;;;11.54;100.00
55914;BME280;58179;48.776;9.124;2023-05-11T06:02:01;97112.13;;;11.52;100.00
55914;BME280;58179;48.776;9.124;2023-05-11T06:04:34;97112.41;;;11.56;100.00
55914;BME280;58179;48.776;9.124;2023-05-11T06:07:00;97120.63;;;11.59;100.00
55914;BME280;58179;48.776;9.124;2023-05-11T06:09:27;97115.59;;;11.63;100.00
55914;BME280;58179;48.776;9.124;2023-05-11T06:11:54;97113.50;;;11.65;100.00
55914;BME280;58179;48.776;9.124;2023-05-11T06:14:20;97117.47;;;11.68;100.00
55914;BME280;58179;48.776;9.124;2023-05-11T06:16:48;97124.09;;;11.70;100.00
55914;BME280;58179;48.776;9.124;2023-05-11T06:19:15;97127.28;;;11.72;100.00
55914;BME280;58179;48.776;9.124;2023-05-11T06:21:43;97122.53;;;11.74;100.00
55914;BME280;58179;48.776;9.124;2023-05-11T06:24:12;97131.81;;;11.77;100.00
55914;BME280;58179;48.776;9.124;2023-05-11T06:26:39;97128.09;;;11.78;100.00
55914;BME280;58179;48.776;9.124;2023-05-11T06:29:06;97125.72;;;11.76;100.00
55914;BME280;58179;48.776;9.124;2023-05-11T06:31:32;97124.66;;;11.77;100.00
55914;BME280;58179;48.776;9.124;2023-05-11T06:34:00;97118.81;;;11.75;100.00
55914;BME280;58179;48.776;9.124;2023-05-11T06:36:29;97126.50;;;11.77;100.00
55914;BME280;58179;48.776;9.124;2023-05-11T06:38:58;97120.41;;;11.76;100.00
55914;BME280;58179;48.776;9.124;2023-05-11T06:41:26;97124.66;;;11.77;100.00
55914;BME280;58179;48.776;9.124;2023-05-11T06:43:52;97123.59;;;11.78;100.00
55914;BME280;58179;48.776;9.124;2023-05-11T06:46:20;97131.31;;;11.80;100.00
55914;BME280;58179;48.776;9.124;2023-05-11T06:48:47;97137.38;;;11.80;100.00
55914;BME280;58179;48.776;9.124;2023-05-11T06:51:13;97119.59;;;11.81;100.00
55914;BME280;58179;48.776;9.124;2023-05-11T06:53:40;97123.59;;;11.83;100.00
55914;BME280;58179;48.776;9.124;2023-05-11T06:56:09;97123.06;;;11.86;100.00
55914;BME280;58179;48.776;9.124;2023-05-11T06:58:37;97122.28;;;11.86;100.00
55914;BME280;58179;48.776;9.124;2023-05-11T07:01:03;97122.03;;;11.87;100.00
55914;BME280;58179;48.776;9.124;2023-05-11T07:03:33;97124.94;;;11.86;100.00
55914;BME280;58179;48.776;9.124;2023-05-11T07:05:59;97118.56;;;11.87;100.00
55914;BME280;58179;48.776;9.124;2023-05-11T07:08:25;97123.06;;;11.91;100.00
55914;BME280;58179;48.776;9.124;2023-05-11T07:13:04;97137.94;;;11.92;100.00
55914;BME280;58179;48.776;9.124;2023-05-11T07:17:29;97130.75;;;11.93;100.00
55914;BME280;58179;48.776;9.124;2023-05-11T07:20:18;97134.22;;;11.93;100.00
55914;BME280;58179;48.776;9.124;2023-05-11T07:23:55;97125.72;;;11.91;100.00
55914;BME280;58179;48.776;9.124;2023-05-11T07:26:13;97129.41;;;11.95;100.00
55914;BME280;58179;48.776;9.124;2023-05-11T07:28:39;97131.31;;;11.95;100.00
55914;BME280;58179;48.776;9.124;2023-05-11T07:31:07;97130.75;;;11.93;100.00
55914;BME280;58179;48.776;9.124;2023-05-11T07:34:09;97139.25;;;12.00;100.00
55914;BME280;58179;48.776;9.124;2023-05-11T07:36:41;97133.16;;;11.99;100.00
55914;BME280;58179;48.776;9.124;2023-05-11T07:39:18;97133.69;;;12.01;100.00
55914;BME280;58179;48.776;9.124;2023-05-11T07:42:34;97134.50;;;12.02;100.00
55914;BME280;58179;48.776;9.124;2023-05-11T07:46:24;97131.03;;;12.01;100.00
55914;BME280;58179;48.776;9.124;2023-05-11T07:50:06;97137.38;;;12.06;100.00
55914;BME280;58179;48.776;9.124;2023-05-11T07:53:02;97138.72;;;12.08;100.00
55914;BME280;58179;48.776;9.124;2023-05-11T07:55:33;97142.69;;;12.11;100.00
